Time;durP1;ratioP1;P1;durP2;ratioP2;P2;SDS_P1;SDS_P2;PMS_P1;PMS_P2;Temp;Humidity;BMP_temperature;BMP_pressure;BME280_temperature;BME280_humidity;BME280_pressure;Samples;Min_cycle;Max_cycle;Signal;HPM_P1;HPM_P2
2022/12/17 13:06:44;;;;;;;13.85;6.88;;;;;;;;;;6243071;23;20035;-63
2022/12/17 13:09:16;;;;;;;8.33;4.97;;;;;;;;;;6242777;23;20706;-64
2022/12/17 13:11:42;;;;;;;9.63;5.03;;;;;;;;;;6243511;23;20246;-63
2022/12/17 13:14:15;;;;;;;11.15;4.57;;;;;;;;;;6243227;23;20020;-63
2022/12/17 13:16:47;;;;;;;11.00;4.50;;;;;;;;;;6244168;23;20011;-64
2022/12/17 13:19:19;;;;;;;9.23;4.83;;;;;;;;;;6243614;23;20019;-64
2022/12/17 13:21:45;;;;;;;10.38;4.22;;;;;;;;;;6242879;23;20254;-63
2022/12/17 13:24:22;;;;;;;13.20;4.13;;;;;;;;;;6243422;22;20069;-64
2022/12/17 13:26:48;;;;;;;7.45;3.70;;;;;;;;;;6243451;23;20000;-64
2022/12/17 13:29:28;;;;;;;7.75;4.20;;;;;;;;;;6243271;23;20000;-64
2022/12/17 13:31:57;;;;;;;11.00;4.68;;;;;;;;;;6243407;23;20008;-63
2022/12/17 13:34:47;;;;;;;11.55;4.32;;;;;;;;;;6243034;23;20011;-64
2022/12/17 13:37:19;;;;;;;12.07;4.65;;;;;;;;;;6243430;23;20039;-63
2022/12/17 13:40:03;;;;;;;8.07;4.47;;;;;;;;;;6242824;23;20082;-64
2022/12/17 13:42:30;;;;;;;14.55;3.92;;;;;;;;;;6242640;23;20023;-64
2022/12/17 13:44:57;;;;;;;9.68;4.00;;;;;;;;;;6242294;23;20027;-64
2022/12/17 13:47:25;;;;;;;13.68;5.47;;;;;;;;;;6242020;23;20004;-64
2022/12/17 13:49:55;;;;;;;11.25;4.03;;;;;;;;;;6241939;23;20000;-64
2022/12/17 13:52:23;;;;;;;6.60;3.65;;;;;;;;;;6242360;23;20031;-64
2022/12/17 13:54:49;;;;;;;9.60;3.65;;;;;;;;;;6242887;23;20004;-64
2022/12/17 13:57:15;;;;;;;9.13;3.70;;;;;;;;;;6242495;23;20007;-64
2022/12/17 13:59:48;;;;;;;8.45;4.65;;;;;;;;;;6242731;23;20050;-64
2022/12/17 14:02:43;;;;;;;25.73;8.95;;;;;;;;;;6241774;23;20095;-64
2022/12/17 14:05:28;;;;;;;9.77;4.68;;;;;;;;;;6216840;22;20096;-64
2022/12/17 14:07:57;;;;;;;7.68;3.65;;;;;;;;;;6243094;23;20079;-64
2022/12/17 14:10:24;;;;;;;7.28;3.10;;;;;;;;;;6242350;23;20043;-65
2022/12/17 14:12:50;;;;;;;5.22;3.00;;;;;;;;;;6242219;23;20008;-64
2022/12/17 14:15:21;;;;;;;7.95;3.25;;;;;;;;;;6241619;23;20090;-64
2022/12/17 14:17:49;;;;;;;7.60;3.13;;;;;;;;;;6242069;23;20384;-64
2022/12/17 14:20:22;;;;;;;5.43;3.40;;;;;;;;;;6240676;23;20486;-64
2022/12/17 14:22:50;;;;;;;11.88;3.47;;;;;;;;;;6242117;23;20088;-64
2022/12/17 14:25:17;;;;;;;6.20;3.13;;;;;;;;;;6242167;23;20000;-64
2022/12/17 14:27:57;;;;;;;9.70;3.45;;;;;;;;;;6242293;23;20004;-64
2022/12/17 14:30:32;;;;;;;7.45;2.83;;;;;;;;;;6241930;23;20057;-64
2022/12/17 14:32:59;;;;;;;6.30;3.05;;;;;;;;;;6242070;23;20083;-64
2022/12/17 14:35:33;;;;;;;5.00;3.25;;;;;;;;;;6242212;22;20000;-64
2022/12/17 14:37:59;;;;;;;4.72;2.88;;;;;;;;;;6242308;23;20480;-64
2022/12/17 14:40:25;;;;;;;8.27;3.13;;;;;;;;;;6240641;23;20185;-64
2022/12/17 14:42:57;;;;;;;6.40;2.88;;;;;;;;;;6241252;23;20008;-64
2022/12/17 14:45:24;;;;;;;5.20;3.05;;;;;;;;;;6239851;23;20005;-64
2022/12/17 14:48:03;;;;;;;7.10;3.78;;;;;;;;;;6242038;23;20319;-64
2022/12/17 14:50:31;;;;;;;11.05;4.68;;;;;;;;;;6241683;22;20039;-64
2022/12/17 14:52:58;;;;;;;7.32;4.22;;;;;;;;;;6240857;23;20004;-64
2022/12/17 14:55:30;;;;;;;6.43;3.22;;;;;;;;;;6242994;23;20008;-64
2022/12/17 14:58:11;;;;;;;5.13;2.80;;;;;;;;;;6245129;22;20058;-64
2022/12/17 15:00:38;;;;;;;9.52;2.92;;;;;;;;;;6245086;23;20008;-64
2022/12/17 15:03:04;;;;;;;6.32;3.25;;;;;;;;;;6245124;23;20000;-63
2022/12/17 15:05:31;;;;;;;6.78;2.70;;;;;;;;;;6245468;23;20004;-63
2022/12/17 15:07:57;;;;;;;9.57;4.25;;;;;;;;;;6245690;22;20007;-63
2022/12/17 15:10:23;;;;;;;11.63;3.60;;;;;;;;;;6244754;22;20083;-63
2022/12/17 15:12:51;;;;;;;9.07;4.32;;;;;;;;;;6244795;23;20394;-63
2022/12/17 15:15:19;;;;;;;10.57;5.20;;;;;;;;;;6245141;22;20067;-63
2022/12/17 15:17:45;;;;;;;9.32;4.05;;;;;;;;;;6244550;22;20091;-64
2022/12/17 15:20:18;;;;;;;9.15;4.00;;;;;;;;;;6245061;23;20326;-64
2022/12/17 15:22:45;;;;;;;10.13;4.00;;;;;;;;;;6244681;22;20419;-64
2022/12/17 15:25:15;;;;;;;15.13;4.47;;;;;;;;;;6245098;23;20010;-64
2022/12/17 15:27:41;;;;;;;8.43;3.97;;;;;;;;;;6245079;23;20431;-64
2022/12/17 15:30:09;;;;;;;10.85;3.75;;;;;;;;;;6244899;23;20485;-64
2022/12/17 15:32:35;;;;;;;7.95;4.00;;;;;;;;;;6244512;23;20008;-64
2022/12/17 15:35:01;;;;;;;15.07;4.72;;;;;;;;;;6245212;23;20476;-64
2022/12/17 15:37:27;;;;;;;8.32;4.28;;;;;;;;;;6244744;23;20391;-64
2022/12/17 15:39:55;;;;;;;11.52;5.72;;;;;;;;;;6245003;23;20044;-64
2022/12/17 15:45:06;;;;;;;9.95;4.40;;;;;;;;;;6243714;23;20020;-64
2022/12/17 15:47:32;;;;;;;13.60;4.75;;;;;;;;;;6243914;23;20004;-64
2022/12/17 15:49:58;;;;;;;10.38;6.70;;;;;;;;;;6242573;23;20330;-64
2022/12/17 15:52:24;;;;;;;11.20;5.80;;;;;;;;;;6244167;23;20015;-64
2022/12/17 15:54:50;;;;;;;16.55;6.03;;;;;;;;;;6243896;23;20081;-64
2022/12/17 15:57:17;;;;;;;12.43;5.90;;;;;;;;;;6244693;23;20011;-64
2022/12/17 15:59:43;;;;;;;15.82;7.40;;;;;;;;;;6245104;22;20016;-64
2022/12/17 16:02:10;;;;;;;20.70;9.50;;;;;;;;;;6244127;23;20004;-64
2022/12/17 16:04:36;;;;;;;32.85;14.18;;;;;;;;;;6244515;23;20484;-64
2022/12/17 16:07:04;;;;;;;25.98;11.88;;;;;;;;;;6243124;22;20059;-64
2022/12/17 16:09:30;;;;;;;20.27;10.55;;;;;;;;;;6244138;22;20434;-64
2022/12/17 16:11:56;;;;;;;29.77;10.25;;;;;;;;;;6243815;23;20004;-64
2022/12/17 16:14:23;;;;;;;25.75;9.88;;;;;;;;;;6243708;23;20016;-64
2022/12/17 16:16:49;;;;;;;23.98;11.55;;;;;;;;;;6244363;23;20015;-64
2022/12/17 16:19:16;;;;;;;26.40;10.70;;;;;;;;;;6243973;23;20008;-64
2022/12/17 16:21:42;;;;;;;25.70;12.23;;;;;;;;;;6243480;23;20426;-64
2022/12/17 16:24:09;;;;;;;31.25;13.75;;;;;;;;;;6243935;23;20493;-64
2022/12/17 16:26:35;;;;;;;32.53;16.23;;;;;;;;;;6244600;22;20000;-64
2022/12/17 16:29:02;;;;;;;48.67;25.02;;;;;;;;;;6243629;23;20004;-64
2022/12/17 16:31:28;;;;;;;39.40;19.52;;;;;;;;;;6244361;23;20014;-64
2022/12/17 16:33:54;;;;;;;34.33;14.50;;;;;;;;;;6244957;23;20513;-64
2022/12/17 16:36:21;;;;;;;31.25;12.48;;;;;;;;;;6244061;23;20023;-63
2022/12/17 16:38:48;;;;;;;24.15;11.93;;;;;;;;;;6244689;23;20008;-64
2022/12/17 16:41:15;;;;;;;31.13;13.07;;;;;;;;;;6244250;23;20062;-64
2022/12/17 16:43:41;;;;;;;31.70;14.80;;;;;;;;;;6243694;23;20014;-64
2022/12/17 16:46:37;;;;;;;26.42;13.45;;;;;;;;;;6243632;23;20454;-64
2022/12/17 16:49:23;;;;;;;25.63;12.95;;;;;;;;;;6218541;22;20012;-64
2022/12/17 16:51:50;;;;;;;28.92;12.90;;;;;;;;;;6243260;22;20012;-64
2022/12/17 16:54:21;;;;;;;29.20;13.07;;;;;;;;;;6243927;23;20385;-64
2022/12/17 16:56:48;;;;;;;32.90;18.05;;;;;;;;;;6243709;23;20015;-64
2022/12/17 16:59:15;;;;;;;26.83;13.98;;;;;;;;;;6242872;23;20007;-64
2022/12/17 17:01:45;;;;;;;29.15;15.15;;;;;;;;;;6243186;23;20012;-64
2022/12/17 17:04:12;;;;;;;25.92;13.30;;;;;;;;;;6244176;23;20031;-64
2022/12/17 17:06:47;;;;;;;42.05;23.33;;;;;;;;;;6243756;23;20011;-63
2022/12/17 17:09:13;;;;;;;45.88;19.98;;;;;;;;;;6242544;23;20342;-64
2022/12/17 17:11:39;;;;;;;29.40;15.00;;;;;;;;;;6243114;23;20000;-63
2022/12/17 17:14:06;;;;;;;29.00;12.88;;;;;;;;;;6242278;23;20043;-63
2022/12/17 17:16:33;;;;;;;24.17;12.60;;;;;;;;;;6242832;23;20342;-63
2022/12/17 17:18:59;;;;;;;29.20;13.52;;;;;;;;;;6243291;23;20087;-63
2022/12/17 17:21:30;;;;;;;23.67;11.13;;;;;;;;;;6242651;22;20395;-63
2022/12/17 17:24:00;;;;;;;27.80;11.73;;;;;;;;;;6243072;23;20000;-63
2022/12/17 17:26:28;;;;;;;23.85;11.25;;;;;;;;;;6242293;23;20461;-63
2022/12/17 17:28:54;;;;;;;25.90;11.85;;;;;;;;;;6242146;23;20007;-63
2022/12/17 17:31:20;;;;;;;20.95;11.15;;;;;;;;;;6242260;23;20012;-63
2022/12/17 17:33:47;;;;;;;20.02;10.48;;;;;;;;;;6242172;23;20461;-63
2022/12/17 17:36:18;;;;;;;22.42;12.02;;;;;;;;;;6243016;23;20011;-63
2022/12/17 17:38:44;;;;;;;27.42;10.38;;;;;;;;;;6243136;23;20058;-63
2022/12/17 17:41:12;;;;;;;24.45;11.18;;;;;;;;;;6242879;23;20004;-63
2022/12/17 17:43:38;;;;;;;20.52;11.70;;;;;;;;;;6242409;22;20011;-63
2022/12/17 17:46:12;;;;;;;23.13;11.85;;;;;;;;;;6241946;23;20004;-63
2022/12/17 17:48:38;;;;;;;26.25;13.43;;;;;;;;;;6242516;23;20008;-63
2022/12/17 17:51:07;;;;;;;25.52;10.90;;;;;;;;;;6242949;23;20327;-63
2022/12/17 17:53:33;;;;;;;25.23;12.60;;;;;;;;;;6239928;22;20426;-63
2022/12/17 17:56:06;;;;;;;35.10;15.63;;;;;;;;;;6242870;23;20000;-63
2022/12/17 17:58:33;;;;;;;45.88;20.35;;;;;;;;;;6243209;23;20070;-63
2022/12/17 18:01:06;;;;;;;23.75;14.73;;;;;;;;;;6243021;23;20396;-63
2022/12/17 18:03:32;;;;;;;27.52;13.05;;;;;;;;;;6241869;23;20422;-63
2022/12/17 18:06:02;;;;;;;25.23;14.77;;;;;;;;;;6243490;23;19996;-63
2022/12/17 18:08:29;;;;;;;31.27;14.35;;;;;;;;;;6242611;22;20087;-63
2022/12/17 18:10:56;;;;;;;35.00;15.75;;;;;;;;;;6243521;23;20015;-63
2022/12/17 18:16:07;;;;;;;33.97;15.57;;;;;;;;;;6242358;23;20082;-63
2022/12/17 18:18:33;;;;;;;31.23;14.55;;;;;;;;;;6242913;23;20008;-63
2022/12/17 18:21:11;;;;;;;32.58;15.57;;;;;;;;;;6242985;22;20031;-63
2022/12/17 18:23:37;;;;;;;30.02;14.25;;;;;;;;;;6242481;23;20061;-63
2022/12/17 18:26:04;;;;;;;28.85;15.73;;;;;;;;;;6242669;23;20106;-63
2022/12/17 18:28:30;;;;;;;26.58;14.65;;;;;;;;;;6242892;22;20000;-63
2022/12/17 18:30:56;;;;;;;26.27;13.98;;;;;;;;;;6242120;23;20000;-64
2022/12/17 18:33:24;;;;;;;35.17;16.08;;;;;;;;;;6241211;23;20464;-63
2022/12/17 18:35:50;;;;;;;27.92;13.60;;;;;;;;;;6242239;22;20004;-64
2022/12/17 18:38:16;;;;;;;28.10;14.38;;;;;;;;;;6242801;22;20004;-63
2022/12/17 18:40:43;;;;;;;42.40;18.98;;;;;;;;;;6241995;22;20070;-63
2022/12/17 18:43:24;;;;;;;38.40;18.75;;;;;;;;;;6242820;23;20079;-63
2022/12/17 18:45:51;;;;;;;31.45;16.00;;;;;;;;;;6242525;23;20397;-63
2022/12/17 18:48:18;;;;;;;32.60;17.70;;;;;;;;;;6243156;23;20434;-63
2022/12/17 18:50:44;;;;;;;35.75;18.33;;;;;;;;;;6242723;23;20012;-63
2022/12/17 18:53:10;;;;;;;42.45;18.35;;;;;;;;;;6241660;23;20008;-63
2022/12/17 18:55:40;;;;;;;27.23;14.77;;;;;;;;;;6241316;23;20689;-63
2022/12/17 18:58:07;;;;;;;34.08;15.43;;;;;;;;;;6241831;23;20019;-63
2022/12/17 19:00:34;;;;;;;32.83;16.60;;;;;;;;;;6241919;22;20014;-63
2022/12/17 19:03:02;;;;;;;32.53;16.63;;;;;;;;;;6241836;23;20012;-63
2022/12/17 19:05:29;;;;;;;37.22;17.02;;;;;;;;;;6242931;22;20044;-63
2022/12/17 19:07:55;;;;;;;40.50;16.20;;;;;;;;;;6242788;22;20008;-63
2022/12/17 19:10:21;;;;;;;35.85;16.52;;;;;;;;;;6242134;23;20482;-63
2022/12/17 19:12:47;;;;;;;36.58;16.52;;;;;;;;;;6241885;23;20015;-63
2022/12/17 19:15:13;;;;;;;35.00;15.85;;;;;;;;;;6241367;23;20000;-62
2022/12/17 19:17:39;;;;;;;31.35;14.63;;;;;;;;;;6240641;23;20086;-63
2022/12/17 19:20:06;;;;;;;29.17;15.00;;;;;;;;;;6241522;23;20346;-63
2022/12/17 19:22:32;;;;;;;31.95;14.77;;;;;;;;;;6240981;23;20012;-64
2022/12/17 19:24:58;;;;;;;32.78;14.02;;;;;;;;;;6241826;23;19996;-64
2022/12/17 19:27:24;;;;;;;32.72;14.32;;;;;;;;;;6241725;23;20000;-63
2022/12/17 19:29:50;;;;;;;31.50;14.38;;;;;;;;;;6241855;23;20005;-63
2022/12/17 19:32:18;;;;;;;34.35;16.58;;;;;;;;;;6240287;23;20008;-63
2022/12/17 19:34:44;;;;;;;31.02;14.43;;;;;;;;;;6242662;23;20083;-63
2022/12/17 19:37:10;;;;;;;31.88;14.98;;;;;;;;;;6241298;23;20008;-63
2022/12/17 19:39:36;;;;;;;28.35;14.90;;;;;;;;;;6242986;23;20000;-63
2022/12/17 19:42:02;;;;;;;30.40;14.75;;;;;;;;;;6242179;23;20354;-63
2022/12/17 19:44:28;;;;;;;30.83;14.38;;;;;;;;;;6243091;23;20008;-62
2022/12/17 19:46:57;;;;;;;33.15;15.52;;;;;;;;;;6243975;23;20030;-63
2022/12/17 19:49:23;;;;;;;34.05;15.15;;;;;;;;;;6244440;22;20000;-62
2022/12/17 19:51:49;;;;;;;33.50;15.23;;;;;;;;;;6244108;23;20019;-63
2022/12/17 19:54:15;;;;;;;41.25;18.67;;;;;;;;;;6244241;23;20319;-62
2022/12/17 19:56:42;;;;;;;47.90;21.05;;;;;;;;;;6244594;23;20008;-62
2022/12/17 19:59:09;;;;;;;58.42;25.00;;;;;;;;;;6243991;23;20035;-63
2022/12/17 20:01:37;;;;;;;50.90;23.88;;;;;;;;;;6243572;23;20579;-63
2022/12/17 20:04:03;;;;;;;42.55;21.98;;;;;;;;;;6245189;22;20300;-63
2022/12/17 20:06:31;;;;;;;40.30;19.55;;;;;;;;;;6243754;23;20015;-63
2022/12/17 20:09:00;;;;;;;36.60;17.10;;;;;;;;;;6244904;23;19996;-63
2022/12/17 20:11:34;;;;;;;44.97;19.35;;;;;;;;;;6244863;23;20004;-62
2022/12/17 20:14:15;;;;;;;36.92;19.02;;;;;;;;;;6244043;23;20016;-63
2022/12/17 20:16:46;;;;;;;42.75;17.75;;;;;;;;;;6242752;23;20004;-63
2022/12/17 20:19:16;;;;;;;45.53;19.15;;;;;;;;;;6243992;23;20012;-64
2022/12/17 20:21:42;;;;;;;51.08;22.45;;;;;;;;;;6243225;23;20008;-64
2022/12/17 20:24:09;;;;;;;56.17;23.92;;;;;;;;;;6243911;23;20035;-64
2022/12/17 20:26:35;;;;;;;51.92;23.67;;;;;;;;;;6243973;23;20468;-64
2022/12/17 20:29:02;;;;;;;49.42;21.20;;;;;;;;;;6244035;23;20005;-63
2022/12/17 20:31:28;;;;;;;44.22;21.42;;;;;;;;;;6243280;23;20083;-63
2022/12/17 20:33:54;;;;;;;38.90;18.45;;;;;;;;;;6243865;23;20027;-63
2022/12/17 20:36:21;;;;;;;38.47;18.35;;;;;;;;;;6243698;23;20346;-63
2022/12/17 20:38:48;;;;;;;37.08;17.55;;;;;;;;;;6244051;23;20008;-64
2022/12/17 20:41:18;;;;;;;35.75;17.65;;;;;;;;;;6244386;23;20091;-63
2022/12/17 20:43:44;;;;;;;34.25;16.13;;;;;;;;;;6243649;23;20012;-63
2022/12/17 20:46:10;;;;;;;38.75;17.10;;;;;;;;;;6243874;23;19996;-64
2022/12/17 20:48:37;;;;;;;41.85;18.30;;;;;;;;;;6244220;23;20008;-63
2022/12/17 20:51:05;;;;;;;37.20;17.42;;;;;;;;;;6242841;23;20458;-63
2022/12/17 20:53:31;;;;;;;39.33;17.83;;;;;;;;;;6243277;23;20004;-63
2022/12/17 20:56:05;;;;;;;43.95;19.58;;;;;;;;;;6243299;23;20083;-63
2022/12/17 20:58:31;;;;;;;38.97;19.17;;;;;;;;;;6243676;23;20099;-63
2022/12/17 21:01:06;;;;;;;42.53;19.83;;;;;;;;;;6241187;23;20443;-63
2022/12/17 21:03:33;;;;;;;50.63;21.60;;;;;;;;;;6241567;23;20061;-63
2022/12/17 21:06:10;;;;;;;45.22;20.27;;;;;;;;;;6242905;23;20058;-63
2022/12/17 21:08:36;;;;;;;45.78;21.05;;;;;;;;;;6241389;23;20054;-63
2022/12/17 21:11:02;;;;;;;42.40;21.65;;;;;;;;;;6241473;23;20004;-63
2022/12/17 21:13:29;;;;;;;46.53;21.20;;;;;;;;;;6240783;23;20016;-63
2022/12/17 21:15:56;;;;;;;44.90;21.55;;;;;;;;;;6242844;23;20004;-63
2022/12/17 21:18:22;;;;;;;45.10;21.08;;;;;;;;;;6243080;23;20004;-63
2022/12/17 21:21:00;;;;;;;45.45;20.33;;;;;;;;;;6242598;23;20015;-63
2022/12/17 21:23:28;;;;;;;43.72;19.15;;;;;;;;;;6243741;23;20034;-63
2022/12/17 21:26:01;;;;;;;43.70;19.98;;;;;;;;;;6243740;23;20019;-63
2022/12/17 21:28:27;;;;;;;45.08;18.23;;;;;;;;;;6243488;23;20083;-63
2022/12/17 21:30:53;;;;;;;37.90;18.88;;;;;;;;;;6243308;23;20438;-63
2022/12/17 21:33:19;;;;;;;41.50;18.08;;;;;;;;;;6244059;23;20004;-63
2022/12/17 21:35:45;;;;;;;36.85;16.52;;;;;;;;;;6243199;23;20405;-63
2022/12/17 21:38:11;;;;;;;33.42;14.65;;;;;;;;;;6243321;23;20054;-63
2022/12/17 21:40:38;;;;;;;37.17;15.13;;;;;;;;;;6243219;23;20011;-63
2022/12/17 21:43:04;;;;;;;39.95;17.02;;;;;;;;;;6242609;23;20465;-63
2022/12/17 21:45:35;;;;;;;32.83;15.55;;;;;;;;;;6242684;23;20008;-63
2022/12/17 21:48:01;;;;;;;29.83;14.20;;;;;;;;;;6242335;22;20007;-64
2022/12/17 21:50:27;;;;;;;32.38;15.65;;;;;;;;;;6242738;23;20004;-63
2022/12/17 21:52:53;;;;;;;32.35;14.60;;;;;;;;;;6244430;23;20430;-63
2022/12/17 21:55:19;;;;;;;32.50;15.95;;;;;;;;;;6244501;23;20005;-63
2022/12/17 21:57:46;;;;;;;32.50;15.63;;;;;;;;;;6244252;23;20015;-63
2022/12/17 22:00:12;;;;;;;32.65;15.25;;;;;;;;;;6244438;23;20213;-63
2022/12/17 22:02:38;;;;;;;34.42;16.17;;;;;;;;;;6244310;23;20008;-64
2022/12/17 22:05:05;;;;;;;36.60;15.75;;;;;;;;;;6243892;23;20000;-63
2022/12/17 22:07:31;;;;;;;46.35;20.02;;;;;;;;;;6244618;23;20438;-63
2022/12/17 22:09:57;;;;;;;45.92;20.75;;;;;;;;;;6244318;23;20046;-63
2022/12/17 22:15:09;;;;;;;38.47;18.05;;;;;;;;;;6243385;23;20027;-63
2022/12/17 22:17:36;;;;;;;40.47;19.38;;;;;;;;;;6243471;22;20342;-63
2022/12/17 22:20:03;;;;;;;41.72;18.65;;;;;;;;;;6243525;23;20012;-63
2022/12/17 22:22:29;;;;;;;36.53;18.70;;;;;;;;;;6243581;23;20042;-63
2022/12/17 22:24:55;;;;;;;39.83;18.63;;;;;;;;;;6244338;23;20031;-63
2022/12/17 22:27:22;;;;;;;34.38;16.92;;;;;;;;;;6244523;23;20000;-63
2022/12/17 22:35:17;;;;;;;36.53;16.00;;;;;;;;;;6244409;23;20399;-63
2022/12/17 22:37:44;;;;;;;34.03;15.77;;;;;;;;;;6244495;23;20011;-63
2022/12/17 22:40:10;;;;;;;37.30;16.98;;;;;;;;;;6244141;23;20008;-63
2022/12/17 22:45:21;;;;;;;32.78;15.65;;;;;;;;;;6244314;23;20000;-63
2022/12/17 22:47:47;;;;;;;32.90;15.65;;;;;;;;;;6244157;23;20069;-63
2022/12/17 22:50:13;;;;;;;35.60;16.08;;;;;;;;;;6244153;23;20030;-63
2022/12/17 22:52:39;;;;;;;37.72;17.30;;;;;;;;;;6244671;23;20000;-65
2022/12/17 22:55:06;;;;;;;41.85;18.63;;;;;;;;;;6244048;23;20016;-64
2022/12/17 22:57:32;;;;;;;36.72;16.85;;;;;;;;;;6244477;23;20014;-64
2022/12/17 22:59:58;;;;;;;37.33;18.35;;;;;;;;;;6244174;23;20435;-64
2022/12/17 23:02:24;;;;;;;37.95;17.88;;;;;;;;;;6243434;23;20066;-64
2022/12/17 23:04:50;;;;;;;38.20;17.92;;;;;;;;;;6244015;23;20068;-64
2022/12/17 23:07:16;;;;;;;35.95;17.10;;;;;;;;;;6244204;23;20000;-64
2022/12/17 23:09:43;;;;;;;36.65;17.92;;;;;;;;;;6244302;23;20469;-64
2022/12/17 23:14:54;;;;;;;37.03;17.25;;;;;;;;;;6244295;23;20350;-64
2022/12/17 23:17:20;;;;;;;37.90;17.02;;;;;;;;;;6245123;23;20019;-64
2022/12/17 23:19:46;;;;;;;47.05;19.02;;;;;;;;;;6246076;23;20026;-64
2022/12/17 23:22:15;;;;;;;39.13;17.02;;;;;;;;;;6245783;23;20054;-64
2022/12/17 23:24:41;;;;;;;35.15;17.58;;;;;;;;;;6246506;23;20004;-64
2022/12/17 23:27:07;;;;;;;36.88;17.20;;;;;;;;;;6246150;23;20014;-64
2022/12/17 23:29:33;;;;;;;41.17;18.77;;;;;;;;;;6245544;23;20501;-65
2022/12/17 23:32:01;;;;;;;42.05;19.75;;;;;;;;;;6246369;23;20079;-65
2022/12/17 23:34:27;;;;;;;35.83;17.75;;;;;;;;;;6245866;22;20023;-65
2022/12/17 23:36:53;;;;;;;41.03;17.30;;;;;;;;;;6246026;23;20500;-65
2022/12/17 23:39:20;;;;;;;37.83;17.85;;;;;;;;;;6246036;23;20110;-65
2022/12/17 23:41:46;;;;;;;36.00;16.55;;;;;;;;;;6246126;23;20346;-64
2022/12/17 23:44:12;;;;;;;45.50;20.77;;;;;;;;;;6245803;23;20004;-64
2022/12/17 23:46:38;;;;;;;44.58;20.65;;;;;;;;;;6246042;23;20362;-64
2022/12/17 23:49:05;;;;;;;46.90;21.35;;;;;;;;;;6246093;23;20004;-65
2022/12/17 23:51:31;;;;;;;37.72;18.60;;;;;;;;;;6245288;22;20461;-65
2022/12/17 23:53:58;;;;;;;46.80;20.70;;;;;;;;;;6246273;23;20004;-64
2022/12/17 23:56:25;;;;;;;38.35;18.08;;;;;;;;;;6245389;23;20329;-64
2022/12/17 23:59:00;;;;;;;42.22;18.95;;;;;;;;;;6245755;22;20338;-64
